Time;durP1;ratioP1;P1;durP2;ratioP2;P2;SDS_P1;SDS_P2;PMS_P1;PMS_P2;Temp;Humidity;BMP_temperature;BMP_pressure;BME280_temperature;BME280_humidity;BME280_pressure;Samples;Min_cycle;Max_cycle;Signal;HPM_P1;HPM_P2
2022/11/12 00:49:07;;;;;;;;;;;17.70;78.40;;;;;;125071412;27;93244;-67
2022/11/12 01:49:11;;;;;;;;;;;17.60;77.70;;;;;;125058243;28;89462;-68
2022/11/12 02:49:13;;;;;;;;;;;17.40;77.40;;;;;;125790929;22;90514;-68
2022/11/12 03:49:16;;;;;;;;;;;17.30;77.30;;;;;;125472022;27;109601;-68
2022/11/12 04:49:18;;;;;;;;;;;17.10;76.90;;;;;;125525326;27;90032;-68
2022/11/12 05:49:20;;;;;;;;;;;17.00;77.00;;;;;;125568236;27;89333;-69
2022/11/12 06:49:21;;;;;;;;;;;17.00;76.90;;;;;;125528755;27;90112;-67
2022/11/12 07:49:23;;;;;;;;;;;17.90;75.90;;;;;;125525565;27;89324;-67
2022/11/12 08:36:30;;;;;;;;;;;17.90;77.50;;;;;;10539156;27;88124;-67
2022/11/12 08:41:32;;;;;;;;;;;18.10;73.50;;;;;;10535387;27;88782;-67
2022/11/12 08:46:34;;;;;;;;;;;18.20;73.70;;;;;;10537132;27;88378;-67
2022/11/12 08:51:35;;;;;;;;;;;18.20;73.90;;;;;;10537345;27;89000;-67
2022/11/12 08:56:38;;;;;;;;;;;18.20;74.10;;;;;;10536199;27;89006;-68
2022/11/12 09:01:40;;;;;;;;;;;18.20;74.30;;;;;;10537203;27;88017;-66
2022/11/12 09:06:42;;;;;;;;;;;18.20;74.30;;;;;;10535886;27;88404;-66
2022/11/12 09:11:43;;;;;;;;;;;18.20;74.40;;;;;;10536722;27;88061;-66
2022/11/12 09:16:45;;;;;;;;;;;18.20;74.60;;;;;;10537096;27;87937;-67
2022/11/12 09:21:47;;;;;;;;;;;18.20;74.90;;;;;;10536587;27;89270;-67
2022/11/12 09:26:51;;;;;;;;;;;18.20;75.00;;;;;;10537459;27;90309;-66
2022/11/12 09:31:52;;;;;;;;;;;18.10;75.10;;;;;;10535529;27;89142;-67
2022/11/12 09:36:54;;;;;;;;;;;18.10;75.30;;;;;;10535566;27;87841;-68
2022/11/12 09:41:56;;;;;;;;;;;18.20;75.50;;;;;;10536216;27;89185;-67
2022/11/12 09:47:08;;;;;;;;;;;18.20;76.10;;;;;;10511069;27;88263;-67
2022/11/12 09:52:15;;;;;;;;;;;18.20;75.90;;;;;;10507430;27;88727;-67
2022/11/12 09:57:16;;;;;;;;;;;18.10;75.90;;;;;;10507204;27;88286;-67
2022/11/12 10:02:30;;;;;;;;;;;18.20;76.00;;;;;;10506328;27;89231;-67
2022/11/12 10:07:45;;;;;;;;;;;18.10;76.00;;;;;;10488434;27;87886;-67
2022/11/12 10:12:56;;;;;;;;;;;18.10;76.00;;;;;;10505821;27;89282;-67
2022/11/12 10:18:14;;;;;;;;;;;18.10;76.00;;;;;;10505991;27;88611;-67
2022/11/12 10:23:19;;;;;;;;;;;18.10;76.00;;;;;;10506756;27;88298;-67
2022/11/12 10:28:26;;;;;;;;;;;18.10;76.00;;;;;;10530626;27;88590;-67
2022/11/12 10:33:29;;;;;;;;;;;18.00;75.90;;;;;;10548272;27;89319;-66
2022/11/12 10:38:31;;;;;;;;;;;18.00;76.20;;;;;;10547704;27;88518;-67
2022/11/12 10:43:33;;;;;;;;;;;18.00;76.30;;;;;;10532759;27;88332;-67
2022/11/12 10:48:35;;;;;;;;;;;18.10;76.40;;;;;;10527186;27;89450;-66
2022/11/12 10:53:38;;;;;;;;;;;18.10;76.40;;;;;;10548152;27;88928;-67
2022/11/12 10:58:40;;;;;;;;;;;18.10;76.70;;;;;;10545392;27;88271;-66
2022/11/12 11:03:55;;;;;;;;;;;18.10;76.70;;;;;;10528741;27;88716;-66
2022/11/12 11:09:12;;;;;;;;;;;18.20;77.80;;;;;;10546675;27;88740;-66
2022/11/12 11:14:30;;;;;;;;;;;18.30;78.30;;;;;;10546756;27;89007;-67
2022/11/12 11:19:40;;;;;;;;;;;18.40;77.50;;;;;;10546160;27;88002;-68
2022/11/12 11:24:45;;;;;;;;;;;18.40;77.20;;;;;;10546865;27;88774;-68
2022/11/12 11:30:06;;;;;;;;;;;18.40;77.00;;;;;;10546172;27;88158;-68
2022/11/12 11:35:26;;;;;;;;;;;18.30;77.10;;;;;;10545646;27;88238;-68
2022/11/12 11:40:32;;;;;;;;;;;18.30;77.00;;;;;;10545246;27;89195;-68
2022/11/12 11:46:10;;;;;;;;;;;18.30;77.20;;;;;;10545545;27;88432;-68
2022/11/12 11:51:23;;;;;;;;;;;18.20;77.40;;;;;;10515994;27;88996;-68
2022/11/12 11:56:32;;;;;;;;;;;18.20;77.60;;;;;;10545663;27;89329;-67
2022/11/12 12:01:49;;;;;;;;;;;18.20;77.70;;;;;;10545317;27;87687;-68
2022/11/12 12:07:08;;;;;;;;;;;18.20;77.80;;;;;;10543449;27;88290;-67
2022/11/12 12:12:30;;;;;;;;;;;18.20;78.00;;;;;;10545596;27;89251;-67
2022/11/12 12:17:35;;;;;;;;;;;18.20;78.10;;;;;;10521990;27;88349;-68
2022/11/12 12:22:40;;;;;;;;;;;18.20;78.20;;;;;;10546126;27;89072;-68
2022/11/12 12:28:02;;;;;;;;;;;18.30;79.40;;;;;;10543093;27;87771;-68
2022/11/12 12:33:22;;;;;;;;;;;18.40;79.70;;;;;;10531399;27;88339;-69
2022/11/12 12:38:43;;;;;;;;;;;18.40;78.40;;;;;;10544025;27;89232;-69
2022/11/12 12:43:47;;;;;;;;;;;18.40;78.40;;;;;;10543600;27;89023;-69
2022/11/12 12:48:51;;;;;;;;;;;18.30;78.30;;;;;;10543417;27;88073;-68
2022/11/12 12:53:53;;;;;;;;;;;18.30;78.30;;;;;;10543806;27;89516;-69
2022/11/12 12:58:55;;;;;;;;;;;18.30;78.40;;;;;;10543795;27;89573;-68
2022/11/12 13:04:02;;;;;;;;;;;18.30;78.50;;;;;;10543501;27;88309;-68
2022/11/12 13:09:18;;;;;;;;;;;18.40;78.50;;;;;;10543400;27;89362;-69
2022/11/12 13:14:35;;;;;;;;;;;18.40;78.40;;;;;;10543225;27;89266;-69
2022/11/12 13:19:38;;;;;;;;;;;18.40;78.30;;;;;;10546236;27;88919;-68
2022/11/12 13:24:58;;;;;;;;;;;18.30;78.30;;;;;;10550667;27;88624;-68
2022/11/12 13:30:00;;;;;;;;;;;18.40;78.40;;;;;;10550921;27;87615;-68
2022/11/12 13:35:17;;;;;;;;;;;18.30;78.50;;;;;;10532666;27;88099;-68
2022/11/12 13:40:35;;;;;;;;;;;18.40;78.60;;;;;;10550806;27;88220;-68
2022/11/12 13:45:40;;;;;;;;;;;18.40;78.50;;;;;;10550337;27;88631;-69
2022/11/12 13:50:46;;;;;;;;;;;18.50;78.40;;;;;;10530720;27;88231;-68
2022/11/12 13:55:48;;;;;;;;;;;18.50;78.30;;;;;;10549640;27;88601;-68
2022/11/12 14:00:51;;;;;;;;;;;18.50;78.20;;;;;;10549126;27;89463;-66
2022/11/12 14:05:53;;;;;;;;;;;18.50;77.80;;;;;;10548850;27;88201;-68
2022/11/12 14:11:03;;;;;;;;;;;18.50;78.10;;;;;;10548802;27;88217;-68
2022/11/12 14:16:07;;;;;;;;;;;18.50;78.10;;;;;;10547257;27;87754;-69
2022/11/12 14:21:15;;;;;;;;;;;18.40;78.00;;;;;;10549321;27;89238;-68
2022/11/12 14:26:34;;;;;;;;;;;18.40;78.10;;;;;;10549024;27;89205;-69
2022/11/12 14:31:36;;;;;;;;;;;18.30;78.10;;;;;;10548100;27;88924;-68
2022/11/12 14:36:37;;;;;;;;;;;18.20;78.30;;;;;;10548467;27;89496;-68
2022/11/12 14:41:41;;;;;;;;;;;18.20;78.40;;;;;;10548139;27;87738;-68
2022/11/12 14:46:47;;;;;;;;;;;18.20;78.50;;;;;;10548184;27;88041;-68
2022/11/12 14:51:52;;;;;;;;;;;18.10;78.50;;;;;;10548676;27;89324;-67
2022/11/12 14:56:54;;;;;;;;;;;18.10;78.70;;;;;;10547766;27;89160;-69
2022/11/12 15:02:01;;;;;;;;;;;18.10;78.80;;;;;;10547456;27;88716;-69
2022/11/12 15:07:28;;;;;;;;;;;18.10;78.90;;;;;;10547918;27;88236;-68
2022/11/12 15:12:31;;;;;;;;;;;18.10;77.90;;;;;;10547123;27;88677;-69
2022/11/12 15:17:34;;;;;;;;;;;18.00;77.80;;;;;;10547147;27;89249;-69
2022/11/12 15:22:36;;;;;;;;;;;18.00;77.90;;;;;;10547269;27;88769;-69
2022/11/12 15:27:41;;;;;;;;;;;18.00;78.10;;;;;;10546946;27;88012;-69
2022/11/12 15:32:43;;;;;;;;;;;18.00;78.20;;;;;;10546201;27;88044;-69
2022/11/12 15:37:45;;;;;;;;;;;18.00;78.00;;;;;;10545262;27;88202;-69
2022/11/12 15:42:47;;;;;;;;;;;18.10;78.00;;;;;;10544925;27;87865;-69
2022/11/12 15:47:49;;;;;;;;;;;18.20;77.80;;;;;;10545012;27;87643;-69
2022/11/12 15:52:50;;;;;;;;;;;18.20;77.60;;;;;;10546194;27;89006;-69
2022/11/12 15:57:52;;;;;;;;;;;18.20;77.50;;;;;;10543608;27;88282;-69
2022/11/12 16:02:56;;;;;;;;;;;18.20;77.40;;;;;;10545144;27;88465;-69
2022/11/12 16:07:58;;;;;;;;;;;18.20;77.30;;;;;;10544923;27;89291;-69
2022/11/12 16:13:01;;;;;;;;;;;18.20;77.30;;;;;;10544832;27;89294;-69
2022/11/12 16:18:02;;;;;;;;;;;18.20;77.30;;;;;;10544025;27;88320;-69
2022/11/12 16:23:04;;;;;;;;;;;18.20;77.30;;;;;;10545097;27;88268;-68
2022/11/12 16:28:11;;;;;;;;;;;18.20;77.30;;;;;;10544093;27;88003;-69
2022/11/12 16:33:14;;;;;;;;;;;18.20;77.30;;;;;;10544060;27;88496;-68
2022/11/12 16:38:16;;;;;;;;;;;18.10;78.70;;;;;;10545273;27;89323;-68
2022/11/12 16:43:18;;;;;;;;;;;18.20;78.10;;;;;;10525559;27;88241;-68
2022/11/12 16:48:20;;;;;;;;;;;18.40;77.90;;;;;;10544464;27;88858;-70
2022/11/12 16:53:22;;;;;;;;;;;18.60;79.60;;;;;;10544015;27;87604;-70
2022/11/12 16:58:24;;;;;;;;;;;18.90;80.80;;;;;;10534577;27;88441;-70
2022/11/12 17:03:26;;;;;;;;;;;19.10;79.60;;;;;;10551420;27;88225;-70
2022/11/12 17:08:28;;;;;;;;;;;19.30;78.30;;;;;;10549690;27;90210;-68
2022/11/12 17:13:37;;;;;;;;;;;19.50;78.70;;;;;;10550913;27;89458;-70
2022/11/12 17:18:39;;;;;;;;;;;19.60;80.10;;;;;;10531834;27;92409;-70
2022/11/12 17:23:41;;;;;;;;;;;19.80;81.20;;;;;;10549499;27;89647;-70
2022/11/12 17:28:43;;;;;;;;;;;19.90;84.30;;;;;;10549535;27;90685;-69
2022/11/12 17:33:46;;;;;;;;;;;20.70;81.10;;;;;;10529577;27;88174;-70
2022/11/12 17:38:51;;;;;;;;;;;20.80;78.30;;;;;;10548402;27;88196;-69
2022/11/12 17:43:54;;;;;;;;;;;20.60;77.90;;;;;;10549701;27;89949;-69
2022/11/12 17:48:56;;;;;;;;;;;20.30;78.30;;;;;;10547538;27;89784;-69
2022/11/12 17:53:58;;;;;;;;;;;20.20;78.20;;;;;;10547297;27;88673;-69
2022/11/12 17:59:00;;;;;;;;;;;20.00;78.60;;;;;;10549108;27;88919;-69
2022/11/12 18:04:01;;;;;;;;;;;19.80;78.50;;;;;;10530704;27;88542;-70
2022/11/12 18:09:07;;;;;;;;;;;19.70;78.60;;;;;;10547464;27;90257;-67
2022/11/12 18:14:09;;;;;;;;;;;19.60;78.70;;;;;;10547958;27;89009;-71
2022/11/12 18:19:11;;;;;;;;;;;19.50;78.90;;;;;;10545562;27;89168;-66
2022/11/12 18:24:14;;;;;;;;;;;19.40;79.00;;;;;;10546974;27;89017;-68
2022/11/12 18:29:15;;;;;;;;;;;19.30;79.20;;;;;;10546261;27;89944;-69
2022/11/12 18:34:17;;;;;;;;;;;19.30;79.20;;;;;;10545693;27;88951;-69
2022/11/12 18:39:19;;;;;;;;;;;19.30;79.20;;;;;;10544669;27;88815;-69
2022/11/12 18:44:20;;;;;;;;;;;19.30;79.00;;;;;;10545762;27;88846;-69
2022/11/12 18:49:26;;;;;;;;;;;19.30;79.00;;;;;;10544752;27;88269;-70
2022/11/12 18:54:28;;;;;;;;;;;19.30;79.10;;;;;;10546584;27;89674;-69
2022/11/12 18:59:31;;;;;;;;;;;19.20;79.00;;;;;;10527691;27;89008;-68
2022/11/12 19:04:33;;;;;;;;;;;19.20;79.00;;;;;;10544863;27;89143;-68
2022/11/12 19:09:34;;;;;;;;;;;19.20;79.00;;;;;;10545284;27;90366;-68
2022/11/12 19:14:36;;;;;;;;;;;19.20;78.90;;;;;;10526111;27;89649;-68
2022/11/12 19:19:38;;;;;;;;;;;19.10;78.80;;;;;;10543379;27;88421;-67
2022/11/12 19:24:39;;;;;;;;;;;19.10;78.80;;;;;;10545204;27;89763;-67
2022/11/12 19:29:41;;;;;;;;;;;19.00;78.80;;;;;;10544620;27;89014;-68
2022/11/12 19:34:43;;;;;;;;;;;18.90;78.80;;;;;;10544140;27;89263;-68
2022/11/12 19:39:44;;;;;;;;;;;18.80;78.80;;;;;;10543462;27;87986;-67
2022/11/12 19:44:47;;;;;;;;;;;18.80;78.90;;;;;;10545825;27;88312;-68
2022/11/12 19:49:49;;;;;;;;;;;18.70;79.00;;;;;;10544285;27;90328;-68
2022/11/12 19:54:50;;;;;;;;;;;18.70;79.10;;;;;;10543243;27;88857;-68
2022/11/12 19:59:52;;;;;;;;;;;18.60;79.10;;;;;;10524754;27;89807;-67
2022/11/12 20:04:54;;;;;;;;;;;18.60;79.00;;;;;;10543376;27;89915;-68
2022/11/12 20:09:55;;;;;;;;;;;18.60;79.10;;;;;;10543679;27;88121;-68
2022/11/12 20:15:01;;;;;;;;;;;18.60;78.90;;;;;;10543484;27;89938;-67
2022/11/12 20:20:04;;;;;;;;;;;18.50;78.80;;;;;;10543277;27;89133;-68
2022/11/12 20:25:06;;;;;;;;;;;18.50;78.90;;;;;;10542561;27;89966;-67
2022/11/12 20:30:08;;;;;;;;;;;18.40;78.80;;;;;;10542766;27;89777;-68
2022/11/12 20:35:09;;;;;;;;;;;18.40;78.70;;;;;;10542925;27;89294;-68
2022/11/12 20:40:21;;;;;;;;;;;18.40;78.80;;;;;;10540905;27;89336;-67
2022/11/12 20:45:23;;;;;;;;;;;18.40;78.70;;;;;;10542420;27;90035;-68
2022/11/12 20:50:25;;;;;;;;;;;18.30;78.70;;;;;;10522461;27;89819;-68
2022/11/12 20:55:27;;;;;;;;;;;18.30;78.80;;;;;;10523541;27;90018;-68
2022/11/12 21:00:28;;;;;;;;;;;18.20;78.70;;;;;;10542897;27;88971;-67
2022/11/12 21:05:31;;;;;;;;;;;18.20;79.60;;;;;;10541413;27;89065;-67
2022/11/12 21:10:32;;;;;;;;;;;18.20;78.60;;;;;;10543339;27;90003;-68
2022/11/12 21:15:34;;;;;;;;;;;18.10;78.60;;;;;;10542330;27;90242;-67
2022/11/12 21:20:36;;;;;;;;;;;18.10;78.60;;;;;;10541410;27;89010;-67
2022/11/12 21:25:38;;;;;;;;;;;18.10;78.50;;;;;;10542289;27;88293;-68
2022/11/12 21:30:40;;;;;;;;;;;18.00;78.50;;;;;;10541398;27;88187;-68
2022/11/12 21:35:42;;;;;;;;;;;18.00;78.40;;;;;;10540570;27;89106;-68
2022/11/12 21:40:43;;;;;;;;;;;18.00;78.40;;;;;;10543167;27;89767;-67
2022/11/12 21:45:45;;;;;;;;;;;18.00;78.50;;;;;;10530421;27;89142;-68
2022/11/12 21:50:47;;;;;;;;;;;18.00;78.40;;;;;;10548721;27;88938;-67
2022/11/12 21:55:49;;;;;;;;;;;17.90;78.40;;;;;;10548702;27;89602;-68
2022/11/12 22:00:51;;;;;;;;;;;17.90;78.30;;;;;;10547703;27;89114;-68
2022/11/12 22:05:53;;;;;;;;;;;17.90;78.20;;;;;;10548863;27;90058;-68
2022/11/12 22:11:01;;;;;;;;;;;17.90;78.30;;;;;;10547566;27;89413;-69
2022/11/12 22:16:04;;;;;;;;;;;17.90;78.10;;;;;;10548067;27;88331;-68
2022/11/12 22:21:08;;;;;;;;;;;17.90;78.20;;;;;;10547636;27;88678;-68
2022/11/12 22:26:11;;;;;;;;;;;18.00;78.00;;;;;;10547233;27;90014;-68
2022/11/12 22:31:17;;;;;;;;;;;17.90;78.00;;;;;;10545784;27;90144;-67
2022/11/12 22:36:19;;;;;;;;;;;17.90;78.10;;;;;;10545551;27;89066;-68
2022/11/12 22:41:23;;;;;;;;;;;17.90;78.00;;;;;;10547244;27;89930;-68
2022/11/12 22:46:26;;;;;;;;;;;17.90;78.00;;;;;;10547114;27;89036;-68
2022/11/12 22:51:28;;;;;;;;;;;17.90;78.10;;;;;;10546887;27;89847;-68
2022/11/12 22:56:33;;;;;;;;;;;17.80;77.80;;;;;;10529689;27;89841;-68
2022/11/12 23:01:35;;;;;;;;;;;17.80;77.80;;;;;;10546500;27;89981;-68
2022/11/12 23:06:37;;;;;;;;;;;17.80;77.60;;;;;;10546055;27;88405;-68
2022/11/12 23:11:39;;;;;;;;;;;17.80;77.70;;;;;;10546346;27;88040;-68
2022/11/12 23:16:40;;;;;;;;;;;17.70;77.60;;;;;;10545368;27;89000;-68
2022/11/12 23:21:42;;;;;;;;;;;17.70;77.50;;;;;;10545466;27;90321;-68
2022/11/12 23:26:44;;;;;;;;;;;17.70;77.50;;;;;;10546280;27;88604;-68
2022/11/12 23:31:45;;;;;;;;;;;17.70;77.50;;;;;;10546197;27;90056;-68
2022/11/12 23:36:47;;;;;;;;;;;17.70;77.50;;;;;;10526956;27;90198;-68
2022/11/12 23:41:49;;;;;;;;;;;17.60;77.50;;;;;;10545533;27;89428;-69
2022/11/12 23:46:50;;;;;;;;;;;17.60;77.40;;;;;;10544872;27;88811;-68
2022/11/12 23:51:52;;;;;;;;;;;17.60;77.30;;;;;;10544636;27;88948;-68
2022/11/12 23:56:54;;;;;;;;;;;17.60;77.40;;;;;;10545029;27;88217;-68
